createdAt,value
2017-10-25T05:43:02.088Z,100963.05
2017-10-25T05:44:08.206Z,100957.77
2017-10-25T05:45:14.332Z,100956.33
2017-10-25T05:46:20.437Z,100958.14
2017-10-25T05:47:27.820Z,100957.86
2017-10-25T05:48:34.371Z,100958.23
2017-10-25T05:49:40.504Z,100956.72
2017-10-25T05:50:46.224Z,100954.17
2017-10-25T05:51:52.630Z,100960.88
2017-10-25T05:52:58.568Z,100955.95
2017-10-25T05:54:04.748Z,100960.77
2017-10-25T05:55:10.876Z,100962.16
2017-10-25T05:56:17.051Z,100959.09
2017-10-25T05:57:23.014Z,100961.27
2017-10-25T05:58:29.220Z,100956.61
2017-10-25T16:23:20.958Z,100992.09
2017-10-25T16:24:27.453Z,100992.95
2017-10-25T16:25:33.520Z,100999.93
2017-10-25T16:26:40.753Z,101001.01
2017-10-25T16:27:49.731Z,101000.18
2017-10-25T16:28:56.362Z,101001.83
2017-10-25T16:30:02.483Z,101005.67
2017-10-25T16:31:08.928Z,101004.78
2017-10-25T16:32:15.573Z,101002.36
2017-10-25T16:33:22.146Z,101003.53
2017-10-25T16:34:28.708Z,101007.05
2017-10-25T16:35:35.437Z,101014.80
2017-10-25T16:36:42.484Z,101008.55
2017-10-25T16:37:48.602Z,101009.56
2017-10-25T16:38:55.498Z,101021.62
2017-10-25T16:40:01.954Z,101016.94
2017-10-25T16:41:08.017Z,101018.83
2017-10-25T16:42:14.203Z,101015.83
2017-10-25T16:43:20.103Z,101016.84
2017-10-25T16:44:26.205Z,101019.45
2017-10-25T16:45:32.056Z,101026.08
2017-10-25T16:46:38.298Z,101028.30
2017-10-25T16:47:44.142Z,101030.13
2017-10-25T16:48:50.224Z,101029.02
2017-10-25T16:49:56.336Z,101021.84
2017-10-25T16:51:02.432Z,101027.88
2017-10-25T16:52:08.498Z,101025.23
2017-10-25T16:53:14.603Z,101017.16
2017-10-25T16:54:20.710Z,101028.29
2017-10-25T16:55:26.761Z,101022.91
2017-10-25T16:56:32.805Z,101034.52
2017-10-25T16:57:38.880Z,101033.53
2017-10-25T16:58:44.969Z,101033.45
2017-10-25T16:59:51.018Z,101037.04
2017-10-25T17:00:57.132Z,101036.20
2017-10-25T17:02:03.159Z,101038.06
2017-10-25T17:03:09.240Z,101044.44
2017-10-25T17:04:15.241Z,101042.29
2017-10-25T17:05:21.634Z,101043.90
2017-10-25T17:06:28.431Z,101047.88
2017-10-25T17:07:34.689Z,101046.62
2017-10-25T17:08:40.822Z,101050.06
2017-10-25T17:09:46.910Z,101049.42
2017-10-25T17:10:53.507Z,101038.50
2017-10-25T17:11:59.351Z,101044.27
2017-10-25T17:13:05.434Z,101046.92
2017-10-25T17:14:11.525Z,101058.23
2017-10-25T17:15:17.598Z,101054.16
2017-10-25T17:16:23.681Z,101058.65
2017-10-25T17:17:29.870Z,101056.34
2017-10-25T17:18:36.181Z,101059.94
2017-10-25T17:19:42.233Z,101059.94
2017-10-25T17:20:48.397Z,101061.47
2017-10-25T17:21:54.366Z,101059.32
2017-10-25T17:23:00.456Z,101060.96
2017-10-25T17:24:06.752Z,101065.91
2017-10-25T17:25:13.073Z,101064.02
2017-10-25T17:26:19.513Z,101068.83
2017-10-25T17:27:25.891Z,101069.34
2017-10-25T17:28:35.370Z,101072.60
2017-10-25T17:29:41.452Z,101066.63
2017-10-25T17:30:47.544Z,101062.72
2017-10-25T17:31:53.600Z,101066.33
2017-10-25T17:32:59.497Z,101069.06
2017-10-25T17:34:05.663Z,101071.89
2017-10-25T17:35:11.771Z,101070.05
2017-10-25T17:36:17.825Z,101075.56
2017-10-25T17:37:23.889Z,101072.27
2017-10-25T17:38:29.953Z,101074.13
2017-10-25T17:39:36.012Z,101077.80
2017-10-25T17:40:42.458Z,101078.19
2017-10-25T17:41:49.476Z,101081.56
2017-10-25T17:42:55.813Z,101081.52
2017-10-25T17:44:01.951Z,101089.66
2017-10-25T17:45:08.049Z,101092.70
2017-10-25T17:46:13.773Z,101087.36
2017-10-25T17:47:20.208Z,101095.88
2017-10-25T17:48:34.463Z,101100.44
2017-10-25T17:49:40.647Z,101094.09
2017-10-25T17:50:46.704Z,101093.16
2017-10-25T17:51:52.744Z,101096.81
2017-10-25T17:52:58.814Z,101091.13
2017-10-25T17:54:04.863Z,101096.29
2017-10-25T17:55:10.905Z,101096.22
2017-10-25T17:56:17.025Z,101094.97
2017-10-25T17:57:22.914Z,101100.69
2017-10-25T17:58:28.970Z,101107.97
2017-10-25T17:59:35.027Z,101098.80
2017-10-25T18:00:41.095Z,101105.45
2017-10-25T18:01:49.320Z,101106.78
2017-10-25T18:02:55.482Z,101108.53
2017-10-25T18:04:01.535Z,101111.16
2017-10-25T18:05:07.619Z,101106.45
2017-10-25T18:06:13.693Z,101112.51
2017-10-25T18:07:19.744Z,101108.39
2017-10-25T18:08:26.357Z,101108.32
2017-10-25T18:09:39.967Z,101111.75
2017-10-25T18:10:49.325Z,101109.89
2017-10-25T18:11:55.422Z,101110.03
2017-10-25T18:13:01.466Z,101117.44
2017-10-25T18:14:07.910Z,101111.49
2017-10-25T18:15:14.234Z,101111.35
2017-10-25T18:16:20.313Z,101116.51
2017-10-25T18:17:27.036Z,101113.47
2017-10-25T18:18:34.028Z,101120.48
2017-10-25T18:19:45.482Z,101121.95
2017-10-25T18:20:51.914Z,101122.92
2017-10-25T18:21:58.245Z,101121.81
2017-10-25T18:23:04.686Z,101122.75
2017-10-25T18:24:11.407Z,101127.07
2017-10-25T18:25:17.739Z,101127.14
2017-10-25T18:26:24.218Z,101121.05
2017-10-25T18:27:30.686Z,101127.25
2017-10-25T18:28:37.279Z,101118.61
2017-10-25T18:29:43.619Z,101126.30
2017-10-25T18:30:51.007Z,101124.05
2017-10-25T18:32:02.248Z,101121.98
2017-10-25T18:33:08.940Z,101121.66
2017-10-25T18:34:15.320Z,101125.69
2017-10-25T18:35:22.395Z,101134.06
2017-10-25T18:36:28.383Z,101124.73
2017-10-25T18:37:34.882Z,101126.00
2017-10-25T18:38:42.000Z,101125.50
2017-10-25T18:39:48.663Z,101138.74
2017-10-25T18:40:55.467Z,101125.53
2017-10-25T18:42:02.204Z,101135.75
2017-10-25T18:43:08.404Z,101126.50
2017-10-25T18:44:14.765Z,101136.41
2017-10-25T18:45:20.999Z,101136.05
2017-10-25T18:46:27.117Z,101138.59
2017-10-25T18:47:33.268Z,101140.22
2017-10-25T18:48:39.887Z,101132.55
2017-10-25T18:49:46.424Z,101130.96
2017-10-25T18:50:52.874Z,101126.56
2017-10-25T18:52:01.025Z,101139.77
2017-10-25T18:53:07.904Z,101134.57
2017-10-25T18:54:14.978Z,101136.00
2017-10-25T18:55:21.378Z,101138.66
2017-10-25T18:56:28.025Z,101133.03
2017-10-25T18:57:34.523Z,101143.29
2017-10-25T18:58:40.716Z,101144.08
2017-10-25T18:59:46.805Z,101136.14
2017-10-25T19:00:56.582Z,101142.76
2017-10-25T19:02:03.619Z,101144.41
2017-10-25T19:03:10.902Z,101142.83
2017-10-25T19:04:17.155Z,101142.66
2017-10-25T19:05:25.529Z,101140.71
2017-10-25T19:06:31.834Z,101141.23
2017-10-25T19:07:38.573Z,101144.28
2017-10-25T19:08:45.193Z,101145.94
2017-10-25T19:09:51.379Z,101146.37
2017-10-25T19:10:58.530Z,101151.43
2017-10-25T19:12:05.553Z,101152.98
2017-10-25T19:13:12.853Z,101153.88
2017-10-25T19:14:19.418Z,101154.27
2017-10-25T19:15:26.555Z,101150.16
2017-10-25T19:16:32.885Z,101163.13
2017-10-25T19:17:39.622Z,101163.63
2017-10-25T19:18:47.339Z,101166.84
2017-10-25T19:19:54.163Z,101169.05
2017-10-25T19:21:00.934Z,101167.27
2017-10-25T19:22:08.035Z,101169.34
2017-10-25T19:23:14.531Z,101178.08
2017-10-25T19:24:20.775Z,101172.66
2017-10-25T19:25:26.506Z,101175.66
2017-10-25T19:26:32.540Z,101173.84
2017-10-25T19:27:38.625Z,101170.27
2017-10-25T19:28:44.669Z,101171.09
2017-10-25T19:29:50.621Z,101176.39
2017-10-25T19:30:56.733Z,101177.45
2017-10-25T19:32:02.794Z,101183.46
2017-10-25T19:33:08.837Z,101183.35
2017-10-25T19:34:16.360Z,101188.70
2017-10-25T19:35:22.502Z,101184.35
2017-10-25T19:36:28.420Z,101178.80
2017-10-25T19:37:34.936Z,101181.10
2017-10-25T19:38:41.037Z,101175.41
2017-10-25T19:39:47.114Z,101178.00
2017-10-25T19:40:53.232Z,101180.91
2017-10-25T19:41:59.302Z,101184.81
2017-10-25T19:43:05.390Z,101190.34
2017-10-25T19:44:11.458Z,101186.19
2017-10-25T19:45:17.596Z,101182.52
2017-10-25T19:46:23.703Z,101183.27
2017-10-25T19:47:29.936Z,101180.93
2017-10-25T19:48:36.078Z,101185.56
2017-10-25T19:49:42.259Z,101192.53
2017-10-25T19:50:48.310Z,101190.94
2017-10-25T19:51:54.414Z,101192.30
2017-10-25T19:53:00.501Z,101195.92
2017-10-25T19:54:10.565Z,101193.98
2017-10-25T19:55:17.266Z,101199.16
2017-10-25T19:56:23.403Z,101198.47
2017-10-25T19:57:29.508Z,101204.31
2017-10-25T19:58:35.622Z,101200.00
2017-10-25T19:59:42.662Z,101202.77
2017-10-25T20:00:48.776Z,101203.14
2017-10-25T20:01:55.021Z,101213.47
2017-10-25T20:03:00.892Z,101216.13
2017-10-25T20:04:10.352Z,101213.91
2017-10-25T20:05:17.427Z,101211.65
2017-10-25T20:06:23.556Z,101216.20
2017-10-25T20:07:29.618Z,101215.59
2017-10-25T20:08:35.753Z,101216.69
2017-10-25T20:09:41.915Z,101218.20
2017-10-25T20:10:47.998Z,101223.36
2017-10-25T20:11:54.185Z,101229.40
2017-10-25T20:13:00.251Z,101233.00
2017-10-25T20:14:06.372Z,101235.86
2017-10-25T20:15:17.773Z,101239.46
2017-10-25T20:16:29.445Z,101232.33
2017-10-25T20:17:35.332Z,101235.77
2017-10-25T20:18:41.420Z,101235.36
2017-10-25T20:19:47.526Z,101230.08
2017-10-25T20:20:53.235Z,101233.78
2017-10-25T20:21:59.357Z,101241.47
2017-10-25T20:23:05.438Z,101236.06
2017-10-25T20:24:11.532Z,101237.84
2017-10-25T20:25:17.613Z,101237.12
2017-10-25T20:26:23.730Z,101231.16
2017-10-25T20:27:29.803Z,101233.80
2017-10-25T20:28:35.986Z,101238.32
2017-10-25T20:29:42.126Z,101246.56
2017-10-25T20:30:48.214Z,101249.36
2017-10-25T20:31:57.806Z,101253.91
2017-10-25T20:33:03.534Z,101252.80
2017-10-25T20:34:09.394Z,101250.25
2017-10-25T20:35:15.445Z,101248.38
2017-10-25T20:36:26.116Z,101253.42
2017-10-25T20:37:35.003Z,101252.71
2017-10-25T20:38:41.300Z,101252.90
2017-10-25T20:39:47.362Z,101253.39
2017-10-25T20:40:53.467Z,101250.09
2017-10-25T20:41:59.577Z,101249.88
2017-10-25T20:43:05.673Z,101245.23
2017-10-25T20:44:11.790Z,101244.07
2017-10-25T20:45:17.987Z,101242.50
2017-10-25T20:46:24.144Z,101237.86
2017-10-25T20:47:30.266Z,101234.38
2017-10-25T20:48:36.429Z,101243.95
2017-10-25T20:49:42.516Z,101242.16
2017-10-25T20:50:48.566Z,101250.41
2017-10-25T20:51:54.843Z,101247.30
2017-10-25T20:53:00.968Z,101247.08
2017-10-25T20:54:07.043Z,101249.81
2017-10-25T20:55:12.948Z,101251.32
2017-10-25T20:56:19.058Z,101252.73
2017-10-25T20:57:38.203Z,101250.37
2017-10-25T20:58:44.302Z,101260.52
2017-10-25T20:59:50.393Z,101259.30
2017-10-25T21:00:56.525Z,101257.30
2017-10-25T21:02:02.609Z,101259.11
2017-10-25T21:03:08.743Z,101252.25
2017-10-25T21:04:14.812Z,101254.03
2017-10-25T21:05:20.883Z,101262.92
2017-10-25T21:06:26.993Z,101260.65
2017-10-25T21:07:33.096Z,101257.30
2017-10-25T21:08:39.224Z,101253.48
2017-10-25T21:09:45.328Z,101248.50
2017-10-25T21:10:51.515Z,101253.58
2017-10-25T21:11:57.641Z,101260.50
2017-10-25T21:13:03.735Z,101262.00
2017-10-25T21:14:10.406Z,101264.09
2017-10-25T21:15:16.492Z,101262.46
2017-10-25T21:16:22.647Z,101265.35
2017-10-25T21:17:28.807Z,101269.91
2017-10-25T21:18:35.708Z,101275.50
2017-10-25T21:19:46.229Z,101271.47
2017-10-25T21:20:52.295Z,101269.98
2017-10-25T21:21:58.351Z,101276.72
2017-10-25T21:23:04.485Z,101269.94
2017-10-25T21:24:10.617Z,101271.76
2017-10-25T21:25:16.702Z,101268.77
2017-10-25T21:26:22.829Z,101266.56
2017-10-25T21:27:28.977Z,101270.42
2017-10-25T21:28:35.033Z,101270.72
2017-10-25T21:29:41.182Z,101262.05
2017-10-25T21:30:47.291Z,101261.41
2017-10-25T21:31:53.477Z,101263.42
2017-10-25T21:32:59.401Z,101273.19
2017-10-25T21:34:05.501Z,101278.07
2017-10-25T21:35:11.610Z,101280.12
2017-10-25T21:36:17.349Z,101273.97
2017-10-25T21:37:23.399Z,101269.89
2017-10-25T21:38:29.552Z,101272.85
2017-10-25T21:39:36.840Z,101274.12
2017-10-25T21:40:43.265Z,101273.11
2017-10-25T21:41:49.340Z,101280.00
2017-10-25T21:42:55.505Z,101283.70
2017-10-25T21:44:03.939Z,101289.66
2017-10-25T21:45:10.005Z,101292.95
2017-10-25T21:46:15.750Z,101286.52
2017-10-25T21:47:21.898Z,101286.30
2017-10-25T21:48:27.998Z,101281.50
2017-10-25T21:49:34.081Z,101272.20
2017-10-25T21:50:40.205Z,101280.20
2017-10-25T21:51:46.256Z,101289.42
2017-10-25T21:52:52.339Z,101290.59
2017-10-25T21:53:58.444Z,101300.96
2017-10-25T21:55:04.548Z,101296.26
2017-10-25T21:56:10.629Z,101297.34
2017-10-25T21:57:16.686Z,101293.04
2017-10-25T21:58:22.414Z,101287.64
2017-10-25T21:59:28.519Z,101293.12
2017-10-25T22:00:34.611Z,101300.91
2017-10-25T22:01:40.115Z,101304.72
2017-10-25T22:02:46.079Z,101302.66
2017-10-25T22:03:52.183Z,101307.36
2017-10-25T22:04:58.294Z,101308.54
2017-10-25T22:06:04.412Z,101310.58
2017-10-25T22:07:10.485Z,101314.06
2017-10-25T22:08:16.616Z,101306.88
2017-10-25T22:09:22.729Z,101306.13
2017-10-25T22:10:28.838Z,101300.59
2017-10-25T22:11:34.952Z,101300.82
2017-10-25T22:12:41.202Z,101291.66
2017-10-25T22:13:47.407Z,101297.92
2017-10-25T22:14:53.562Z,101297.39
2017-10-25T22:15:59.727Z,101299.31
2017-10-25T22:17:05.840Z,101298.82
2017-10-25T22:18:11.918Z,101300.17
2017-10-25T22:19:18.071Z,101301.60
2017-10-25T22:20:24.973Z,101297.22
2017-10-25T22:21:31.494Z,101297.44
2017-10-25T22:22:37.650Z,101293.28
2017-10-25T22:23:43.564Z,101298.02
2017-10-25T22:24:49.698Z,101304.08
2017-10-25T22:25:55.894Z,101301.02
2017-10-25T22:27:02.014Z,101303.72
2017-10-25T22:28:08.224Z,101302.85
2017-10-25T22:29:14.324Z,101300.48
2017-10-25T22:30:20.406Z,101298.46
2017-10-25T22:31:26.484Z,101289.77
2017-10-25T22:32:32.564Z,101291.37
2017-10-25T22:33:38.727Z,101289.62
2017-10-25T22:34:44.906Z,101282.25
2017-10-25T22:35:51.094Z,101287.87
2017-10-25T22:36:57.151Z,101281.98
2017-10-25T22:38:03.231Z,101285.48
2017-10-25T22:39:09.305Z,101286.41
2017-10-25T22:40:15.203Z,101284.30
2017-10-25T22:41:21.298Z,101287.86
2017-10-25T22:42:27.457Z,101290.61
2017-10-25T22:43:34.207Z,101288.16
2017-10-25T22:44:40.357Z,101287.27
2017-10-25T22:45:46.468Z,101282.02
2017-10-25T22:46:52.707Z,101280.41
2017-10-25T22:47:58.836Z,101274.69
2017-10-25T22:49:04.994Z,101277.77
2017-10-25T22:50:11.105Z,101280.48
2017-10-25T22:51:16.839Z,101285.80
2017-10-25T22:52:22.854Z,101295.47
2017-10-25T22:53:29.212Z,101295.33
2017-10-25T22:54:35.346Z,101290.08
2017-10-25T22:55:41.554Z,101293.18
2017-10-25T22:56:47.809Z,101295.81
2017-10-25T22:57:53.907Z,101291.25
2017-10-25T22:59:00.089Z,101295.34
2017-10-25T23:00:06.017Z,101293.96
2017-10-25T23:01:14.220Z,101287.57
2017-10-25T23:02:20.144Z,101291.55
2017-10-25T23:03:26.113Z,101291.41
2017-10-25T23:04:32.190Z,101295.01
2017-10-25T23:05:38.337Z,101290.73
2017-10-25T23:06:44.383Z,101292.20
2017-10-25T23:07:50.478Z,101291.01
2017-10-25T23:08:56.688Z,101290.14
2017-10-25T23:10:02.588Z,101290.73
2017-10-25T23:11:08.697Z,101300.73
2017-10-25T23:12:14.880Z,101309.28
2017-10-25T23:13:21.006Z,101312.09
2017-10-25T23:14:27.096Z,101301.85
2017-10-25T23:15:33.225Z,101297.27
2017-10-25T23:16:39.433Z,101311.08
2017-10-25T23:17:45.568Z,101303.63
2017-10-25T23:18:51.731Z,101307.73
2017-10-25T23:19:57.836Z,101308.52
2017-10-25T23:21:03.975Z,101311.33
2017-10-25T23:22:10.056Z,101318.45
2017-10-25T23:23:16.033Z,101318.86
2017-10-25T23:24:22.144Z,101324.63
2017-10-25T23:25:28.227Z,101329.04
2017-10-25T23:26:34.371Z,101323.68
2017-10-25T23:27:40.570Z,101331.69
2017-10-25T23:28:46.512Z,101329.96
2017-10-25T23:29:52.727Z,101323.50
2017-10-25T23:30:58.500Z,101328.36
2017-10-25T23:32:04.586Z,101322.63
2017-10-25T23:33:10.510Z,101323.66
2017-10-25T23:34:16.571Z,101329.63
2017-10-25T23:35:22.728Z,101331.56
2017-10-25T23:36:28.826Z,101329.92
2017-10-25T23:37:34.929Z,101328.30
2017-10-25T23:38:41.920Z,101325.08
2017-10-25T23:39:48.969Z,101328.78
2017-10-25T23:40:55.079Z,101325.03
2017-10-25T23:42:01.876Z,101326.20
2017-10-25T23:43:08.036Z,101326.60
2017-10-25T23:44:14.120Z,101328.87
2017-10-25T23:45:20.218Z,101328.27
2017-10-25T23:46:26.302Z,101326.50
2017-10-25T23:47:32.390Z,101325.16
2017-10-25T23:48:39.937Z,101318.94
2017-10-25T23:49:46.052Z,101323.23
2017-10-25T23:50:54.064Z,101316.89
2017-10-25T23:52:00.223Z,101318.23
2017-10-25T23:53:06.384Z,101321.78
2017-10-25T23:54:12.510Z,101324.47
2017-10-25T23:55:18.669Z,101329.61
2017-10-25T23:56:24.806Z,101332.08
2017-10-25T23:57:30.750Z,101334.98
2017-10-25T23:58:36.877Z,101335.41
2017-10-25T23:59:42.818Z,101337.14
